Time;durP1;ratioP1;P1;durP2;ratioP2;P2;SDS_P1;SDS_P2;PMS_P1;PMS_P2;Temp;Humidity;BMP_temperature;BMP_pressure;BME280_temperature;BME280_humidity;BME280_pressure;Samples;Min_cycle;Max_cycle;Signal;HPM_P1;HPM_P2
2023/08/28 00:00:36;;;;;;;2.30;1.63;;;13.70;99.90;;;;;;5112892;28;20180;-84
2023/08/28 00:03:02;;;;;;;2.13;1.63;;;13.50;99.90;;;;;;5112397;28;20290;-84
2023/08/28 00:05:31;;;;;;;1.87;1.50;;;13.50;99.90;;;;;;5112224;28;20565;-84
2023/08/28 00:07:57;;;;;;;3.40;1.80;;;13.60;99.90;;;;;;5111835;28;20211;-84
2023/08/28 00:10:24;;;;;;;1.40;1.30;;;13.60;99.90;;;;;;5112922;28;20182;-84
2023/08/28 00:12:49;;;;;;;2.00;1.23;;;13.60;99.90;;;;;;5113432;28;20183;-84
2023/08/28 00:15:15;;;;;;;2.07;1.40;;;13.50;99.90;;;;;;5112956;28;20175;-85
2023/08/28 00:17:41;;;;;;;1.67;1.20;;;13.40;99.90;;;;;;5112518;28;20226;-84
2023/08/28 00:20:10;;;;;;;1.73;1.47;;;13.40;99.90;;;;;;5112356;28;20171;-84
2023/08/28 00:22:36;;;;;;;1.17;1.07;;;13.30;99.90;;;;;;5111579;28;20678;-85
2023/08/28 00:25:03;;;;;;;1.60;1.50;;;13.20;99.90;;;;;;5112661;28;20171;-85
2023/08/28 00:27:29;;;;;;;3.00;1.50;;;13.10;99.90;;;;;;5112336;28;20202;-84
2023/08/28 00:29:55;;;;;;;2.37;1.63;;;13.10;99.90;;;;;;5110988;28;20167;-84
2023/08/28 00:32:20;;;;;;;2.53;1.43;;;13.00;99.90;;;;;;5111219;28;20175;-84
2023/08/28 00:34:47;;;;;;;1.70;1.43;;;13.00;99.90;;;;;;5112627;28;20172;-85
2023/08/28 00:37:12;;;;;;;2.10;1.53;;;12.90;99.90;;;;;;5111384;28;20681;-85
2023/08/28 00:39:38;;;;;;;1.63;1.50;;;12.90;99.90;;;;;;5110775;28;20178;-84
2023/08/28 00:42:04;;;;;;;2.63;1.43;;;12.90;99.90;;;;;;5111267;28;20209;-84
2023/08/28 00:44:30;;;;;;;1.60;1.50;;;13.00;99.90;;;;;;5111188;28;20168;-84
2023/08/28 00:46:56;;;;;;;1.60;1.43;;;13.00;99.90;;;;;;5110970;28;20192;-84
2023/08/28 00:49:21;;;;;;;3.40;1.50;;;12.90;99.90;;;;;;5111256;28;20179;-84
2023/08/28 00:51:47;;;;;;;3.10;1.53;;;12.90;99.90;;;;;;5113937;28;20167;-85
2023/08/28 00:54:13;;;;;;;1.80;1.40;;;12.90;99.90;;;;;;5116658;28;20175;-84
2023/08/28 00:56:41;;;;;;;2.20;1.57;;;12.90;99.90;;;;;;5114998;28;20568;-84
2023/08/28 00:59:06;;;;;;;2.23;1.40;;;12.90;99.90;;;;;;5116295;28;20590;-84
2023/08/28 01:01:32;;;;;;;2.90;1.57;;;12.90;99.90;;;;;;5114483;28;20172;-84
2023/08/28 01:03:58;;;;;;;2.73;1.80;;;13.00;99.90;;;;;;5116367;28;20203;-85
2023/08/28 01:06:38;;;;;;;1.37;1.27;;;13.00;99.90;;;;;;5116146;28;20343;-85
2023/08/28 01:09:43;;;;;;;3.27;1.57;;;13.00;99.90;;;;;;5116397;28;20164;-84
2023/08/28 01:12:11;;;;;;;1.77;1.60;;;12.90;99.90;;;;;;5114870;28;20167;-84
2023/08/28 01:15:16;;;;;;;4.50;1.83;;;13.00;99.90;;;;;;5114949;28;20886;-85
2023/08/28 01:17:43;;;;;;;3.80;2.00;;;13.00;99.90;;;;;;5106326;28;20200;-84
2023/08/28 01:20:15;;;;;;;2.00;1.80;;;13.00;99.90;;;;;;5114273;28;20220;-84
2023/08/28 01:23:04;;;;;;;1.83;1.47;;;13.00;99.90;;;;;;5116550;28;20192;-84
2023/08/28 01:25:31;;;;;;;2.30;1.70;;;12.90;99.90;;;;;;5116162;28;20160;-84
2023/08/28 01:27:58;;;;;;;2.90;1.50;;;12.70;99.90;;;;;;5114690;28;20192;-84
2023/08/28 01:30:24;;;;;;;2.33;1.60;;;12.70;99.90;;;;;;5114297;28;20175;-84
2023/08/28 01:32:49;;;;;;;2.77;1.60;;;12.70;99.90;;;;;;5115860;28;20182;-84
2023/08/28 01:35:19;;;;;;;2.23;1.60;;;12.70;99.90;;;;;;5114776;28;20175;-84
2023/08/28 01:38:22;;;;;;;1.77;1.63;;;12.70;99.90;;;;;;5114720;28;20192;-85
2023/08/28 01:41:10;;;;;;;1.50;1.40;;;12.70;99.90;;;;;;5115370;28;20175;-84
2023/08/28 01:43:38;;;;;;;1.53;1.33;;;12.70;99.90;;;;;;5115740;28;20203;-84
2023/08/28 01:46:05;;;;;;;2.40;1.50;;;12.60;99.90;;;;;;5115823;27;20168;-84
2023/08/28 01:48:33;;;;;;;2.50;1.70;;;12.70;99.90;;;;;;5114551;28;20171;-84
2023/08/28 01:50:59;;;;;;;2.07;1.90;;;12.60;99.90;;;;;;5115018;28;20214;-84
2023/08/28 01:53:26;;;;;;;1.60;1.50;;;12.60;99.90;;;;;;5114172;28;20593;-85
2023/08/28 01:56:07;;;;;;;1.77;1.40;;;12.50;99.90;;;;;;5115246;28;20247;-84
2023/08/28 01:58:42;;;;;;;2.20;1.70;;;12.40;99.90;;;;;;5114269;28;20167;-84
2023/08/28 02:01:07;;;;;;;2.40;1.90;;;12.40;99.90;;;;;;5113183;28;20279;-84
2023/08/28 02:03:33;;;;;;;2.90;1.87;;;12.40;99.90;;;;;;5113957;28;20294;-84
2023/08/28 02:05:59;;;;;;;2.73;1.90;;;12.40;99.90;;;;;;5114028;28;20711;-84
2023/08/28 02:08:24;;;;;;;2.17;1.70;;;12.40;99.90;;;;;;5115061;28;20168;-84
2023/08/28 02:10:52;;;;;;;1.87;1.73;;;12.40;99.90;;;;;;5113544;28;20175;-84
2023/08/28 02:13:17;;;;;;;2.03;1.53;;;12.40;99.90;;;;;;5113724;28;20180;-84
2023/08/28 02:15:43;;;;;;;1.60;1.50;;;12.30;99.90;;;;;;5113864;28;20520;-84
2023/08/28 02:18:08;;;;;;;1.60;1.50;;;12.40;99.90;;;;;;5113802;28;20187;-84
2023/08/28 02:20:34;;;;;;;4.17;1.50;;;12.40;99.90;;;;;;5112982;28;20264;-84
2023/08/28 02:22:59;;;;;;;3.00;1.60;;;12.40;99.90;;;;;;5113490;28;20199;-84
2023/08/28 02:25:25;;;;;;;1.90;1.40;;;12.30;99.90;;;;;;5115095;28;20167;-84
2023/08/28 02:27:50;;;;;;;3.47;1.70;;;12.30;99.90;;;;;;5113650;28;20203;-84
2023/08/28 02:30:19;;;;;;;1.67;1.47;;;12.40;99.90;;;;;;5114085;28;20185;-84
2023/08/28 02:32:45;;;;;;;1.87;1.47;;;12.40;99.90;;;;;;5114626;28;20256;-84
2023/08/28 02:35:11;;;;;;;1.90;1.40;;;12.40;99.90;;;;;;5113607;28;20175;-84
2023/08/28 02:37:38;;;;;;;1.73;1.63;;;12.40;99.90;;;;;;5113278;28;20203;-84
2023/08/28 02:40:04;;;;;;;1.67;1.57;;;12.30;99.90;;;;;;5113929;28;20182;-84
2023/08/28 02:42:30;;;;;;;1.60;1.50;;;12.30;99.90;;;;;;5113258;28;20206;-84
2023/08/28 02:44:55;;;;;;;4.07;1.60;;;12.30;99.90;;;;;;5114392;28;20171;-84
2023/08/28 02:47:21;;;;;;;1.60;1.50;;;12.20;99.90;;;;;;5114364;28;20194;-84
2023/08/28 02:49:47;;;;;;;1.83;1.63;;;12.20;99.90;;;;;;5112481;28;20211;-84
2023/08/28 02:52:13;;;;;;;2.07;1.77;;;12.20;99.90;;;;;;5114138;28;20194;-84
2023/08/28 02:54:38;;;;;;;1.60;1.50;;;12.20;99.90;;;;;;5113158;28;20171;-84
2023/08/28 02:57:04;;;;;;;2.97;1.70;;;12.20;99.90;;;;;;5112976;28;20620;-84
2023/08/28 02:59:30;;;;;;;2.13;1.50;;;12.20;99.90;;;;;;5112786;28;20277;-83
2023/08/28 03:01:56;;;;;;;1.87;1.60;;;12.10;99.90;;;;;;5112337;28;20210;-84
2023/08/28 03:04:21;;;;;;;1.77;1.30;;;12.10;99.90;;;;;;5112857;28;20200;-84
2023/08/28 03:06:47;;;;;;;2.63;1.40;;;12.20;99.90;;;;;;5112429;28;20661;-84
2023/08/28 03:09:13;;;;;;;1.87;1.70;;;12.10;99.90;;;;;;5111458;28;20179;-84
2023/08/28 03:11:38;;;;;;;2.43;1.80;;;12.10;99.90;;;;;;5111938;28;20210;-84
2023/08/28 03:14:04;;;;;;;2.17;1.50;;;12.10;99.90;;;;;;5113009;28;20267;-84
2023/08/28 03:16:30;;;;;;;2.27;1.70;;;12.10;99.90;;;;;;5113581;28;20273;-84
2023/08/28 03:18:56;;;;;;;1.77;1.67;;;12.00;99.90;;;;;;5112486;28;20168;-84
2023/08/28 03:21:21;;;;;;;1.87;1.60;;;12.00;99.90;;;;;;5111784;28;20263;-84
2023/08/28 03:23:47;;;;;;;3.00;1.83;;;12.00;99.90;;;;;;5113768;28;20203;-84
2023/08/28 03:26:13;;;;;;;2.17;1.50;;;12.10;99.90;;;;;;5113747;28;20224;-84
2023/08/28 03:28:38;;;;;;;2.10;1.90;;;12.10;99.90;;;;;;5112376;28;20551;-83
2023/08/28 03:31:04;;;;;;;3.57;1.83;;;12.00;99.90;;;;;;5111569;28;20550;-84
2023/08/28 03:33:30;;;;;;;2.30;1.70;;;12.10;99.90;;;;;;5112334;28;20582;-84
2023/08/28 03:35:56;;;;;;;1.70;1.60;;;12.10;99.90;;;;;;5112240;28;20179;-84
2023/08/28 03:38:21;;;;;;;4.50;1.80;;;12.00;99.90;;;;;;5112109;28;20578;-84
2023/08/28 03:40:47;;;;;;;2.13;1.90;;;12.00;99.90;;;;;;5111841;28;20207;-84
2023/08/28 03:43:13;;;;;;;1.67;1.30;;;11.90;99.90;;;;;;5111855;28;20220;-84
2023/08/28 03:45:39;;;;;;;2.00;1.60;;;11.80;99.90;;;;;;5112173;28;20237;-84
2023/08/28 03:48:06;;;;;;;2.23;1.47;;;11.70;99.90;;;;;;5111967;28;20195;-84
2023/08/28 03:50:31;;;;;;;2.17;1.83;;;11.70;99.90;;;;;;5111328;28;20579;-84
2023/08/28 03:52:58;;;;;;;1.73;1.63;;;11.60;99.90;;;;;;5112180;28;20194;-84
2023/08/28 03:55:24;;;;;;;1.90;1.50;;;11.60;99.90;;;;;;5112127;28;20180;-84
2023/08/28 03:57:51;;;;;;;2.17;1.63;;;11.60;99.90;;;;;;5111685;28;20268;-84
2023/08/28 04:00:18;;;;;;;1.60;1.50;;;11.60;99.90;;;;;;5112675;28;20199;-85
2023/08/28 04:02:44;;;;;;;2.70;1.70;;;11.60;99.90;;;;;;5113081;28;20665;-84
2023/08/28 04:05:11;;;;;;;2.20;1.67;;;11.60;99.90;;;;;;5112637;28;20183;-84
2023/08/28 04:07:36;;;;;;;1.90;1.80;;;11.60;99.90;;;;;;5111530;28;20203;-84
2023/08/28 04:10:03;;;;;;;2.70;1.57;;;11.60;99.90;;;;;;5112428;28;20182;-84
2023/08/28 04:12:28;;;;;;;2.50;1.73;;;11.60;99.90;;;;;;5112718;28;20174;-84
2023/08/28 04:14:54;;;;;;;1.87;1.70;;;11.50;99.90;;;;;;5111542;28;20182;-84
2023/08/28 04:17:20;;;;;;;1.93;1.63;;;11.60;99.90;;;;;;5111441;28;20206;-84
2023/08/28 04:19:49;;;;;;;1.57;1.40;;;11.50;99.90;;;;;;5110950;28;20253;-84
2023/08/28 04:22:15;;;;;;;1.70;1.60;;;11.60;99.90;;;;;;5112767;28;20187;-84
2023/08/28 04:24:40;;;;;;;2.30;1.70;;;11.60;99.90;;;;;;5111316;28;20171;-84
2023/08/28 04:27:06;;;;;;;1.90;1.80;;;11.60;99.90;;;;;;5112429;28;20184;-84
2023/08/28 04:29:31;;;;;;;1.80;1.70;;;11.70;99.90;;;;;;5111258;28;20168;-84
2023/08/28 04:31:57;;;;;;;2.37;1.60;;;11.80;99.90;;;;;;5112073;28;20254;-84
2023/08/28 04:34:22;;;;;;;2.47;1.83;;;11.70;99.90;;;;;;5112489;28;20170;-84
2023/08/28 04:36:48;;;;;;;2.70;1.67;;;11.80;99.90;;;;;;5111548;28;20210;-84
2023/08/28 04:39:14;;;;;;;1.87;1.60;;;11.70;99.90;;;;;;5111299;28;20175;-85
2023/08/28 04:41:39;;;;;;;2.60;1.77;;;11.70;99.90;;;;;;5111840;28;20209;-84
2023/08/28 04:44:05;;;;;;;2.43;1.60;;;11.60;99.90;;;;;;5112376;28;20283;-84
2023/08/28 04:46:30;;;;;;;3.53;1.70;;;11.50;99.90;;;;;;5111206;28;20187;-84
2023/08/28 04:48:56;;;;;;;1.87;1.50;;;11.40;99.90;;;;;;5111197;28;20208;-84
2023/08/28 04:51:21;;;;;;;2.27;1.80;;;11.40;99.90;;;;;;5110708;28;20167;-84
2023/08/28 04:53:47;;;;;;;2.40;2.03;;;11.40;99.90;;;;;;5112581;28;20182;-84
2023/08/28 04:56:12;;;;;;;2.13;1.70;;;11.30;99.90;;;;;;5112384;28;20192;-84
2023/08/28 04:58:38;;;;;;;1.93;1.70;;;11.40;99.90;;;;;;5112291;28;20212;-84
2023/08/28 05:01:04;;;;;;;2.30;1.67;;;11.40;99.90;;;;;;5110381;28;20175;-84
2023/08/28 05:03:29;;;;;;;4.37;1.97;;;11.30;99.90;;;;;;5111918;28;20210;-84
2023/08/28 05:05:55;;;;;;;4.93;2.00;;;11.40;99.90;;;;;;5110919;28;20182;-84
2023/08/28 05:08:21;;;;;;;1.97;1.77;;;11.50;99.90;;;;;;5112367;28;20268;-84
2023/08/28 05:10:46;;;;;;;1.80;1.53;;;11.50;99.90;;;;;;5111831;28;20175;-85
2023/08/28 05:13:12;;;;;;;4.10;2.27;;;11.60;99.90;;;;;;5111114;28;20258;-85
2023/08/28 05:15:38;;;;;;;2.03;1.80;;;11.70;99.90;;;;;;5112152;28;20183;-86
2023/08/28 05:18:04;;;;;;;2.63;1.97;;;11.80;99.90;;;;;;5111985;28;20195;-86
2023/08/28 05:20:29;;;;;;;1.80;1.70;;;11.80;99.90;;;;;;5110384;28;20182;-87
2023/08/28 05:22:55;;;;;;;3.47;1.73;;;11.70;99.90;;;;;;5110950;28;20203;-86
2023/08/28 05:25:21;;;;;;;2.00;1.80;;;11.80;99.90;;;;;;5110972;28;20263;-89
2023/08/28 05:27:47;;;;;;;2.83;2.00;;;11.80;99.90;;;;;;5112444;28;20192;-82
2023/08/28 05:30:12;;;;;;;2.23;1.90;;;11.90;99.90;;;;;;5111965;28;20195;-87
2023/08/28 05:32:38;;;;;;;2.07;1.90;;;11.80;99.90;;;;;;5110964;28;20182;-84
2023/08/28 05:35:05;;;;;;;2.37;2.17;;;11.90;99.90;;;;;;5112270;28;20183;-85
2023/08/28 05:37:31;;;;;;;2.17;1.80;;;11.80;99.90;;;;;;5113266;28;20210;-85
2023/08/28 05:39:57;;;;;;;1.90;1.80;;;11.90;99.90;;;;;;5114432;28;20172;-85
2023/08/28 05:42:23;;;;;;;3.20;1.80;;;11.80;99.90;;;;;;5114504;28;20199;-86
2023/08/28 05:44:48;;;;;;;2.00;1.80;;;11.80;99.90;;;;;;5114388;28;20270;-83
2023/08/28 05:47:14;;;;;;;2.30;2.10;;;11.80;99.90;;;;;;5115340;28;20192;-85
2023/08/28 05:49:40;;;;;;;2.83;1.60;;;11.90;99.90;;;;;;5113402;28;20175;-85
2023/08/28 05:52:05;;;;;;;4.03;1.83;;;12.00;99.90;;;;;;5116449;28;20168;-84
2023/08/28 05:54:31;;;;;;;2.00;1.80;;;12.00;99.90;;;;;;5114509;28;20168;-87
2023/08/28 05:56:56;;;;;;;2.27;2.00;;;12.10;99.90;;;;;;5117895;28;20194;-86
2023/08/28 05:59:22;;;;;;;2.10;1.90;;;12.30;99.90;;;;;;5115728;28;20710;-85
2023/08/28 06:01:47;;;;;;;3.57;1.90;;;12.60;99.90;;;;;;5115419;28;20167;-84
2023/08/28 06:04:13;;;;;;;3.37;2.27;;;12.80;99.90;;;;;;5115836;28;20199;-84
2023/08/28 06:06:38;;;;;;;2.43;1.90;;;12.70;99.90;;;;;;5117435;28;20203;-84
2023/08/28 06:09:05;;;;;;;2.40;2.20;;;12.60;99.90;;;;;;5117153;28;20170;-84
2023/08/28 06:11:30;;;;;;;2.63;2.30;;;12.50;99.90;;;;;;5115440;28;20258;-84
2023/08/28 06:13:56;;;;;;;2.67;2.37;;;12.50;99.90;;;;;;5116481;28;20211;-85
2023/08/28 06:16:22;;;;;;;2.70;2.50;;;12.50;99.90;;;;;;5115648;28;20241;-86
2023/08/28 06:18:47;;;;;;;4.40;2.40;;;12.50;99.90;;;;;;5115179;28;20578;-84
2023/08/28 06:21:13;;;;;;;3.10;2.20;;;12.50;99.90;;;;;;5114986;28;20227;-84
2023/08/28 06:23:38;;;;;;;2.40;2.20;;;12.60;99.90;;;;;;5115906;28;20199;-85
2023/08/28 06:26:04;;;;;;;3.00;2.20;;;12.60;99.90;;;;;;5116450;28;20308;-84
2023/08/28 06:28:29;;;;;;;4.10;2.30;;;12.70;99.90;;;;;;5115451;28;20174;-84
2023/08/28 06:30:55;;;;;;;3.00;2.70;;;12.70;99.90;;;;;;5116699;28;20160;-84
2023/08/28 06:33:21;;;;;;;3.90;3.00;;;12.80;99.90;;;;;;5116708;28;20167;-86
2023/08/28 06:35:47;;;;;;;4.23;2.67;;;12.80;99.90;;;;;;5118128;28;20171;-84
2023/08/28 06:38:13;;;;;;;2.83;2.63;;;12.90;99.90;;;;;;5116707;28;20179;-85
2023/08/28 06:40:39;;;;;;;2.87;2.67;;;12.90;99.90;;;;;;5114807;27;20271;-84
2023/08/28 06:43:04;;;;;;;2.70;2.50;;;13.00;99.90;;;;;;5113245;28;20196;-85
2023/08/28 06:45:31;;;;;;;3.63;2.80;;;13.00;99.90;;;;;;5113281;28;20167;-86
2023/08/28 06:47:57;;;;;;;5.13;2.70;;;13.00;99.90;;;;;;5114109;28;20204;-86
2023/08/28 06:50:24;;;;;;;2.47;2.27;;;13.10;99.90;;;;;;5113815;28;20176;-86
2023/08/28 06:52:49;;;;;;;2.77;2.57;;;13.10;99.90;;;;;;5114362;28;20206;-87
2023/08/28 06:55:15;;;;;;;2.37;2.17;;;13.10;99.90;;;;;;5118613;28;20180;-84
2023/08/28 06:57:41;;;;;;;3.67;2.80;;;13.00;99.90;;;;;;5117336;28;20230;-84
2023/08/28 07:00:08;;;;;;;2.70;2.43;;;13.00;99.90;;;;;;5114976;28;20175;-84
2023/08/28 07:02:35;;;;;;;2.87;2.60;;;13.00;99.90;;;;;;5113744;28;20211;-85
2023/08/28 07:05:01;;;;;;;3.27;2.70;;;13.00;99.90;;;;;;5116071;28;20175;-85
2023/08/28 07:07:27;;;;;;;4.37;3.20;;;13.10;99.90;;;;;;5115894;28;20298;-85
2023/08/28 07:09:52;;;;;;;2.90;2.70;;;13.10;99.90;;;;;;5114042;28;20182;-83
2023/08/28 07:12:18;;;;;;;3.13;2.87;;;13.20;99.90;;;;;;5115241;28;20171;-85
2023/08/28 07:14:43;;;;;;;5.80;3.27;;;13.30;99.90;;;;;;5113655;28;20174;-84
2023/08/28 07:17:09;;;;;;;3.50;3.20;;;13.20;99.90;;;;;;5114606;28;20590;-83
2023/08/28 07:19:34;;;;;;;3.80;3.30;;;13.30;99.90;;;;;;5113350;28;20164;-84
2023/08/28 07:22:00;;;;;;;5.03;2.90;;;13.30;99.90;;;;;;5113326;28;20167;-83
2023/08/28 07:24:29;;;;;;;3.73;3.30;;;13.30;99.90;;;;;;5114527;28;20559;-83
2023/08/28 07:26:55;;;;;;;3.57;2.97;;;13.40;99.90;;;;;;5113102;28;20274;-83
2023/08/28 07:29:20;;;;;;;3.60;3.30;;;13.30;99.90;;;;;;5114174;28;20190;-83
2023/08/28 07:31:46;;;;;;;3.40;3.03;;;13.40;99.90;;;;;;5112502;28;20168;-83
2023/08/28 07:34:11;;;;;;;4.33;3.40;;;13.40;99.90;;;;;;5114335;28;20172;-84
2023/08/28 07:36:37;;;;;;;5.53;3.30;;;13.40;99.90;;;;;;5114210;28;20202;-84
2023/08/28 07:39:03;;;;;;;3.77;3.37;;;13.50;99.90;;;;;;5114763;28;20175;-85
2023/08/28 07:41:29;;;;;;;4.60;3.83;;;13.50;99.90;;;;;;5112563;28;20171;-83
2023/08/28 07:43:54;;;;;;;3.70;3.40;;;13.60;99.90;;;;;;5113896;28;20219;-83
2023/08/28 07:46:20;;;;;;;4.33;3.60;;;13.70;99.90;;;;;;5114069;28;20593;-83
2023/08/28 07:48:45;;;;;;;3.67;3.37;;;13.70;99.90;;;;;;5112836;28;20168;-84
2023/08/28 07:51:11;;;;;;;4.43;3.80;;;13.80;99.90;;;;;;5113645;28;20191;-83
2023/08/28 07:53:37;;;;;;;4.23;3.83;;;13.80;99.90;;;;;;5113643;28;20197;-83
2023/08/28 07:56:03;;;;;;;4.43;4.03;;;13.80;99.90;;;;;;5113824;28;20199;-83
2023/08/28 07:58:29;;;;;;;4.27;3.80;;;13.90;99.90;;;;;;5112531;28;20262;-83
2023/08/28 08:00:56;;;;;;;5.30;4.47;;;14.10;99.90;;;;;;5111518;28;20700;-83
2023/08/28 08:03:22;;;;;;;5.13;4.37;;;14.10;99.90;;;;;;5112525;28;20261;-83
2023/08/28 08:05:47;;;;;;;5.30;4.20;;;14.10;99.90;;;;;;5112662;28;20168;-83
2023/08/28 08:08:13;;;;;;;4.43;4.03;;;14.10;99.90;;;;;;5112163;28;20200;-83
2023/08/28 08:10:52;;;;;;;5.00;4.50;;;14.10;99.90;;;;;;5130461;27;20538;-84
2023/08/28 08:13:18;;;;;;;4.27;3.97;;;14.10;99.90;;;;;;5146552;27;20283;-84
2023/08/28 08:15:43;;;;;;;5.30;4.50;;;14.20;99.90;;;;;;5130897;27;20622;-84
2023/08/28 08:18:09;;;;;;;4.70;4.30;;;14.20;99.90;;;;;;5130684;27;20195;-85
2023/08/28 08:20:34;;;;;;;4.83;4.20;;;14.20;99.90;;;;;;5129122;28;20198;-84
2023/08/28 08:23:00;;;;;;;5.13;4.47;;;14.40;99.90;;;;;;5131721;27;20629;-84
2023/08/28 08:25:26;;;;;;;6.93;5.00;;;14.30;99.90;;;;;;5130568;27;20175;-84
2023/08/28 08:27:51;;;;;;;4.80;4.40;;;14.40;99.90;;;;;;5130634;27;20199;-84
2023/08/28 08:30:17;;;;;;;4.50;4.07;;;14.50;99.90;;;;;;5128525;28;20209;-84
2023/08/28 08:32:43;;;;;;;5.10;4.63;;;14.60;99.90;;;;;;5129589;28;20171;-85
2023/08/28 08:35:09;;;;;;;5.10;4.60;;;14.60;99.90;;;;;;5130517;27;20178;-84
2023/08/28 08:37:35;;;;;;;5.73;4.37;;;14.70;99.90;;;;;;5132614;27;20220;-84
2023/08/28 08:40:02;;;;;;;5.80;5.20;;;14.70;99.90;;;;;;5130190;28;20266;-85
2023/08/28 08:42:28;;;;;;;5.67;5.07;;;14.80;99.90;;;;;;5130822;28;20197;-84
2023/08/28 08:44:53;;;;;;;5.70;5.07;;;14.90;99.90;;;;;;5129189;28;20179;-84
2023/08/28 08:47:19;;;;;;;6.57;5.57;;;15.00;99.90;;;;;;5129890;27;20282;-84
2023/08/28 08:49:49;;;;;;;5.33;4.83;;;15.00;99.90;;;;;;5129602;27;20290;-84
2023/08/28 08:52:18;;;;;;;5.30;4.80;;;15.10;99.90;;;;;;5129871;27;20228;-84
2023/08/28 08:54:45;;;;;;;5.77;4.77;;;15.00;99.90;;;;;;5129234;28;20206;-84
2023/08/28 08:57:15;;;;;;;5.33;4.80;;;15.10;99.90;;;;;;5128716;28;20195;-86
2023/08/28 08:59:41;;;;;;;6.03;4.60;;;15.10;99.90;;;;;;5129719;27;20175;-84
2023/08/28 09:02:09;;;;;;;5.53;5.03;;;15.00;99.90;;;;;;5128658;28;20175;-85
2023/08/28 09:04:35;;;;;;;5.40;4.90;;;15.10;99.90;;;;;;5128476;28;20673;-86
2023/08/28 09:07:03;;;;;;;6.40;4.97;;;15.10;99.90;;;;;;5128369;28;20290;-84
2023/08/28 09:09:30;;;;;;;5.90;5.30;;;15.20;99.90;;;;;;5127030;28;20327;-87
2023/08/28 09:11:56;;;;;;;5.90;5.20;;;15.30;99.90;;;;;;5122491;27;20549;-84
2023/08/28 09:14:21;;;;;;;5.33;4.83;;;15.40;99.90;;;;;;5126698;28;20634;-84
2023/08/28 09:16:47;;;;;;;5.70;4.60;;;15.50;99.90;;;;;;5128379;28;20335;-84
2023/08/28 09:19:12;;;;;;;5.80;4.57;;;15.50;99.90;;;;;;5129841;27;20171;-84
2023/08/28 09:21:38;;;;;;;5.03;4.40;;;15.60;99.90;;;;;;5113820;28;20180;-84
2023/08/28 09:24:09;;;;;;;5.23;4.77;;;15.60;99.90;;;;;;5110026;28;20644;-84
2023/08/28 09:26:38;;;;;;;5.37;4.33;;;15.70;99.90;;;;;;5114528;28;20552;-84
2023/08/28 09:29:06;;;;;;;4.73;4.33;;;15.70;99.90;;;;;;5114305;28;20248;-84
2023/08/28 09:31:42;;;;;;;5.40;4.53;;;15.80;99.90;;;;;;5113980;28;20217;-84
2023/08/28 09:34:08;;;;;;;5.23;4.13;;;15.80;99.90;;;;;;5116369;28;20179;-85
2023/08/28 09:36:35;;;;;;;5.00;4.17;;;15.80;99.90;;;;;;5110678;28;20670;-84
2023/08/28 09:39:06;;;;;;;5.10;4.50;;;15.80;99.90;;;;;;5110595;28;20176;-85
2023/08/28 09:41:49;;;;;;;4.53;4.07;;;15.80;99.90;;;;;;5113851;28;20179;-85
2023/08/28 09:44:16;;;;;;;4.03;3.63;;;15.80;99.90;;;;;;5115470;28;20212;-87
2023/08/28 09:46:43;;;;;;;4.60;4.20;;;15.90;99.90;;;;;;5114087;28;20202;-85
2023/08/28 09:49:10;;;;;;;5.40;3.80;;;15.90;99.90;;;;;;5113972;28;20199;-85
2023/08/28 09:51:50;;;;;;;3.83;3.50;;;16.00;99.90;;;;;;5113291;28;20637;-86
2023/08/28 09:54:16;;;;;;;4.63;3.67;;;16.10;94.40;;;;;;5114140;28;20328;-85
2023/08/28 09:56:43;;;;;;;5.00;4.00;;;16.20;66.90;;;;;;5115047;28;20217;-85
2023/08/28 09:59:10;;;;;;;4.53;3.60;;;16.20;24.10;;;;;;5115246;28;20545;-85
2023/08/28 10:01:37;;;;;;;3.40;3.00;;;16.20;1.00;;;;;;5114558;28;20176;-84
2023/08/28 10:04:10;;;;;;;3.40;3.07;;;16.20;1.00;;;;;;5114010;28;20183;-85
2023/08/28 10:06:53;;;;;;;3.80;3.10;;;16.10;1.00;;;;;;5114880;28;20203;-86
2023/08/28 10:09:21;;;;;;;3.57;3.10;;;16.20;1.00;;;;;;5114835;28;20202;-85
2023/08/28 10:11:50;;;;;;;3.97;3.17;;;16.20;61.20;;;;;;5108865;28;20204;-84
2023/08/28 10:14:17;;;;;;;58.10;14.27;;;16.20;1.00;;;;;;5111197;28;20200;-86
2023/08/28 10:17:04;;;;;;;52.90;14.60;;;16.30;99.90;;;;;;5101252;28;20253;-86
2023/08/28 10:19:38;;;;;;;9.63;4.40;;;17.80;99.90;;;;;;5093246;28;20280;-87
2023/08/28 10:22:07;;;;;;;6.07;3.20;;;17.70;1.00;;;;;;5094090;28;20547;-87
2023/08/28 10:24:35;;;;;;;7.57;4.00;;;17.40;1.00;;;;;;5093020;28;20551;-83
2023/08/28 10:27:02;;;;;;;7.90;3.97;;;17.20;18.00;;;;;;5092913;28;20201;-86
2023/08/28 10:29:30;;;;;;;8.17;4.10;;;17.00;1.00;;;;;;5094002;28;20208;-88
2023/08/28 10:31:56;;;;;;;5.50;3.90;;;16.90;57.00;;;;;;5091794;28;20173;-87
2023/08/28 10:34:24;;;;;;;4.50;3.87;;;17.00;80.40;;;;;;5093216;28;20688;-85
2023/08/28 10:36:51;;;;;;;10.03;4.40;;;16.90;1.00;;;;;;5092452;28;20203;-85
2023/08/28 10:39:17;;;;;;;4.30;3.67;;;17.30;99.90;;;;;;5093734;28;20631;-81
2023/08/28 10:41:46;;;;;;;5.97;4.17;;;17.50;99.90;;;;;;5096909;28;20229;-82
2023/08/28 10:44:13;;;;;;;5.77;3.50;;;17.80;1.00;;;;;;5096133;28;20692;-82
2023/08/28 10:46:39;;;;;;;3.87;3.40;;;18.00;1.00;;;;;;5098922;28;20204;-82
2023/08/28 10:49:06;;;;;;;4.20;3.17;;;17.80;99.90;;;;;;5097586;28;20226;-83
2023/08/28 10:51:35;;;;;;;5.77;3.33;;;17.60;99.90;;;;;;5096766;28;20196;-83
2023/08/28 10:54:05;;;;;;;4.93;3.33;;;17.60;1.00;;;;;;5099698;28;20298;-82
2023/08/28 10:56:33;;;;;;;3.73;3.10;;;17.80;1.00;;;;;;5103086;28;20273;-82
2023/08/28 10:59:17;;;;;;;7.63;3.27;;;17.60;1.00;;;;;;5100136;28;20173;-82
2023/08/28 11:01:56;;;;;;;3.47;3.17;;;17.70;1.00;;;;;;5109514;28;20672;-82
2023/08/28 11:04:23;;;;;;;3.13;2.90;;;17.80;1.00;;;;;;5115773;28;20270;-82
2023/08/28 11:06:50;;;;;;;3.43;2.70;;;18.00;1.00;;;;;;5118808;28;20264;-82
2023/08/28 11:09:27;;;;;;;4.77;3.27;;;18.30;1.00;;;;;;5118843;28;20339;-82
2023/08/28 11:11:58;;;;;;;3.67;2.90;;;18.40;92.20;;;;;;5118516;28;20171;-82
2023/08/28 11:14:25;;;;;;;3.17;2.60;;;18.20;1.00;;;;;;5119177;28;20194;-83
2023/08/28 11:17:10;;;;;;;2.77;2.47;;;18.00;99.90;;;;;;5120167;28;20563;-82
2023/08/28 11:19:54;;;;;;;2.50;2.30;;;18.10;1.00;;;;;;5117118;28;20191;-80
2023/08/28 11:22:33;;;;;;;4.70;2.60;;;18.10;99.90;;;;;;5119186;28;20193;-82
2023/08/28 11:25:00;;;;;;;2.80;2.50;;;18.10;1.00;;;;;;5119695;28;20190;-82
2023/08/28 11:27:35;;;;;;;2.80;2.50;;;18.30;99.90;;;;;;5117884;28;20195;-82
2023/08/28 11:30:05;;;;;;;3.13;2.80;;;18.50;1.00;;;;;;5118293;28;20571;-82
2023/08/28 11:32:31;;;;;;;2.77;2.53;;;18.60;1.00;;;;;;5118827;28;20160;-82
2023/08/28 11:35:01;;;;;;;2.60;2.40;;;18.80;1.00;;;;;;5118498;28;20191;-82
2023/08/28 11:37:31;;;;;;;3.67;2.20;;;18.70;1.00;;;;;;5118822;28;20217;-85
2023/08/28 11:39:56;;;;;;;2.63;1.80;;;18.60;99.90;;;;;;5118623;28;20526;-82
2023/08/28 11:42:24;;;;;;;2.47;2.20;;;18.70;1.00;;;;;;5117049;28;20180;-82
2023/08/28 11:44:50;;;;;;;1.90;1.70;;;18.80;1.00;;;;;;5112887;28;20179;-86
2023/08/28 11:47:26;;;;;;;2.30;1.80;;;18.80;1.00;;;;;;5111582;28;20195;-86
2023/08/28 11:49:55;;;;;;;2.27;1.90;;;18.70;99.90;;;;;;5112952;28;20759;-86
2023/08/28 11:52:21;;;;;;;2.07;1.70;;;18.70;99.90;;;;;;5111612;28;20172;-86
2023/08/28 11:54:48;;;;;;;2.42;2.05;;;18.70;99.90;;;;;;5113116;28;20259;-87
2023/08/28 11:57:18;;;;;;;2.73;2.47;;;18.70;99.90;;;;;;5113455;28;20337;-87
2023/08/28 11:59:45;;;;;;;3.10;2.40;;;18.70;1.00;;;;;;5111026;28;20657;-87
2023/08/28 12:02:14;;;;;;;3.30;2.30;;;18.70;99.90;;;;;;5111988;28;20175;-89
2023/08/28 12:04:41;;;;;;;4.13;2.90;;;19.00;99.90;;;;;;5110807;28;20180;-87
2023/08/28 12:07:21;;;;;;;3.20;2.90;;;19.10;1.00;;;;;;5110801;28;20192;-86
2023/08/28 12:09:48;;;;;;;3.13;2.80;;;18.90;99.90;;;;;;5110736;28;20262;-87
2023/08/28 12:12:14;;;;;;;2.67;2.47;;;18.70;99.90;;;;;;5112343;28;20182;-87
2023/08/28 12:14:44;;;;;;;2.67;2.30;;;18.60;99.90;;;;;;5113473;28;20171;-89
2023/08/28 12:17:37;;;;;;;2.40;2.20;;;18.50;99.90;;;;;;5112859;28;20554;-87
2023/08/28 12:20:06;;;;;;;2.67;2.00;;;18.50;1.00;;;;;;5111641;28;20262;-87
2023/08/28 12:22:34;;;;;;;2.63;1.90;;;18.50;1.00;;;;;;5111650;28;20187;-86
2023/08/28 12:24:59;;;;;;;2.87;2.27;;;18.40;99.90;;;;;;5113019;28;20191;-87
2023/08/28 12:27:27;;;;;;;2.93;2.10;;;18.50;1.00;;;;;;5112674;28;20234;-87
2023/08/28 12:29:56;;;;;;;3.15;2.15;;;18.50;1.00;;;;;;5111331;28;20203;-86
2023/08/28 12:32:21;;;;;;;2.73;2.30;;;18.50;99.90;;;;;;5111704;28;20717;-87
2023/08/28 12:34:48;;;;;;;2.87;1.83;;;18.50;1.00;;;;;;5101352;28;20267;-87
2023/08/28 12:37:14;;;;;;;2.10;1.92;;;18.50;99.90;;;;;;5091304;28;20192;-87
2023/08/28 12:39:50;;;;;;;2.38;2.05;;;18.40;1.00;;;;;;5091193;28;20290;-87
2023/08/28 12:42:20;;;;;;;3.40;1.93;;;18.50;1.00;;;;;;5102557;28;20224;-89
2023/08/28 12:44:46;;;;;;;2.40;1.90;;;18.70;99.90;;;;;;5104526;28;20179;-87
2023/08/28 12:47:13;;;;;;;1.80;1.67;;;18.90;1.00;;;;;;5112545;28;20198;-86
2023/08/28 12:49:40;;;;;;;2.10;1.80;;;18.90;1.00;;;;;;5112737;28;20203;-85